sensor_id;sensor_type;location;lat;lon;timestamp;P1;durP1;ratioP1;P2;durP2;ratioP2
44272;SDS011;29964;17.182;-96.766;2022-10-16T00:01:39;1.50;;;0.70;;
44272;SDS011;29964;17.182;-96.766;2022-10-16T00:04:06;0.80;;;0.50;;
44272;SDS011;29964;17.182;-96.766;2022-10-16T00:06:33;1.53;;;0.63;;
44272;SDS011;29964;17.182;-96.766;2022-10-16T00:08:59;0.50;;;0.30;;
44272;SDS011;29964;17.182;-96.766;2022-10-16T00:11:30;5.00;;;0.70;;
44272;SDS011;29964;17.182;-96.766;2022-10-16T00:14:02;0.80;;;0.60;;
44272;SDS011;29964;17.182;-96.766;2022-10-16T00:16:29;0.40;;;0.40;;
44272;SDS011;29964;17.182;-96.766;2022-10-16T00:18:56;0.50;;;0.40;;
44272;SDS011;29964;17.182;-96.766;2022-10-16T00:21:26;0.20;;;0.20;;
44272;SDS011;29964;17.182;-96.766;2022-10-16T00:23:54;0.57;;;0.30;;
44272;SDS011;29964;17.182;-96.766;2022-10-16T00:26:21;0.60;;;0.43;;
44272;SDS011;29964;17.182;-96.766;2022-10-16T00:28:49;1.47;;;0.40;;
44272;SDS011;29964;17.182;-96.766;2022-10-16T00:31:16;1.70;;;0.73;;
44272;SDS011;29964;17.182;-96.766;2022-10-16T00:33:43;0.30;;;0.30;;
44272;SDS011;29964;17.182;-96.766;2022-10-16T00:36:12;0.60;;;0.37;;
44272;SDS011;29964;17.182;-96.766;2022-10-16T00:38:39;1.40;;;0.63;;
44272;SDS011;29964;17.182;-96.766;2022-10-16T00:41:06;1.20;;;0.67;;
44272;SDS011;29964;17.182;-96.766;2022-10-16T00:43:35;1.17;;;0.60;;
44272;SDS011;29964;17.182;-96.766;2022-10-16T00:46:04;1.00;;;0.60;;
44272;SDS011;29964;17.182;-96.766;2022-10-16T00:48:32;0.97;;;0.50;;
44272;SDS011;29964;17.182;-96.766;2022-10-16T00:50:58;2.33;;;0.80;;
44272;SDS011;29964;17.182;-96.766;2022-10-16T00:53:25;1.30;;;0.37;;
44272;SDS011;29964;17.182;-96.766;2022-10-16T00:55:53;0.43;;;0.30;;
44272;SDS011;29964;17.182;-96.766;2022-10-16T00:58:20;0.63;;;0.50;;
44272;SDS011;29964;17.182;-96.766;2022-10-16T01:00:47;0.67;;;0.47;;
44272;SDS011;29964;17.182;-96.766;2022-10-16T01:03:30;1.03;;;0.63;;
44272;SDS011;29964;17.182;-96.766;2022-10-16T01:08:58;0.40;;;0.40;;
44272;SDS011;29964;17.182;-96.766;2022-10-16T01:13:55;2.07;;;1.23;;
44272;SDS011;29964;17.182;-96.766;2022-10-16T01:19:12;4.00;;;1.07;;
44272;SDS011;29964;17.182;-96.766;2022-10-16T01:29:34;6.47;;;0.60;;
44272;SDS011;29964;17.182;-96.766;2022-10-16T01:35:03;2.13;;;1.00;;
44272;SDS011;29964;17.182;-96.766;2022-10-16T01:37:35;1.67;;;0.77;;
44272;SDS011;29964;17.182;-96.766;2022-10-16T01:40:05;2.53;;;0.80;;
44272;SDS011;29964;17.182;-96.766;2022-10-16T01:42:34;0.33;;;0.33;;
44272;SDS011;29964;17.182;-96.766;2022-10-16T01:45:01;1.70;;;0.57;;
44272;SDS011;29964;17.182;-96.766;2022-10-16T01:47:29;0.83;;;0.50;;
44272;SDS011;29964;17.182;-96.766;2022-10-16T01:49:56;1.07;;;0.73;;
44272;SDS011;29964;17.182;-96.766;2022-10-16T01:52:25;0.87;;;0.63;;
44272;SDS011;29964;17.182;-96.766;2022-10-16T01:54:53;5.10;;;1.47;;
44272;SDS011;29964;17.182;-96.766;2022-10-16T01:57:21;2.03;;;1.20;;
44272;SDS011;29964;17.182;-96.766;2022-10-16T01:59:50;1.53;;;1.13;;
44272;SDS011;29964;17.182;-96.766;2022-10-16T02:02:19;2.10;;;1.03;;
44272;SDS011;29964;17.182;-96.766;2022-10-16T02:04:58;1.87;;;1.20;;
44272;SDS011;29964;17.182;-96.766;2022-10-16T02:07:25;3.97;;;2.00;;
44272;SDS011;29964;17.182;-96.766;2022-10-16T02:09:51;4.50;;;1.30;;
44272;SDS011;29964;17.182;-96.766;2022-10-16T02:12:28;2.40;;;1.10;;
44272;SDS011;29964;17.182;-96.766;2022-10-16T02:14:57;2.40;;;1.50;;
44272;SDS011;29964;17.182;-96.766;2022-10-16T02:17:24;1.90;;;1.23;;
44272;SDS011;29964;17.182;-96.766;2022-10-16T02:19:52;1.93;;;1.30;;
44272;SDS011;29964;17.182;-96.766;2022-10-16T02:22:33;1.50;;;1.20;;
44272;SDS011;29964;17.182;-96.766;2022-10-16T02:25:12;3.93;;;1.00;;
44272;SDS011;29964;17.182;-96.766;2022-10-16T02:27:45;0.93;;;0.63;;
44272;SDS011;29964;17.182;-96.766;2022-10-16T02:30:57;1.93;;;0.87;;
44272;SDS011;29964;17.182;-96.766;2022-10-16T02:33:05;2.50;;;1.10;;
44272;SDS011;29964;17.182;-96.766;2022-10-16T02:35:33;1.60;;;1.03;;
44272;SDS011;29964;17.182;-96.766;2022-10-16T02:38:00;1.20;;;0.87;;
44272;SDS011;29964;17.182;-96.766;2022-10-16T02:40:27;1.90;;;0.90;;
44272;SDS011;29964;17.182;-96.766;2022-10-16T02:42:54;1.47;;;0.87;;
44272;SDS011;29964;17.182;-96.766;2022-10-16T02:45:22;0.93;;;0.80;;
44272;SDS011;29964;17.182;-96.766;2022-10-16T02:47:48;0.20;;;0.20;;
44272;SDS011;29964;17.182;-96.766;2022-10-16T02:50:15;1.80;;;1.03;;
44272;SDS011;29964;17.182;-96.766;2022-10-16T02:52:42;1.63;;;0.80;;
44272;SDS011;29964;17.182;-96.766;2022-10-16T02:55:09;1.37;;;0.53;;
44272;SDS011;29964;17.182;-96.766;2022-10-16T02:57:36;0.80;;;0.80;;
44272;SDS011;29964;17.182;-96.766;2022-10-16T03:00:04;1.27;;;0.80;;
44272;SDS011;29964;17.182;-96.766;2022-10-16T03:02:31;1.53;;;0.97;;
44272;SDS011;29964;17.182;-96.766;2022-10-16T03:04:58;1.40;;;0.83;;
44272;SDS011;29964;17.182;-96.766;2022-10-16T03:07:24;9.23;;;1.10;;
44272;SDS011;29964;17.182;-96.766;2022-10-16T03:09:51;1.10;;;0.77;;
44272;SDS011;29964;17.182;-96.766;2022-10-16T03:12:18;1.47;;;0.80;;
44272;SDS011;29964;17.182;-96.766;2022-10-16T03:14:44;2.23;;;1.07;;
44272;SDS011;29964;17.182;-96.766;2022-10-16T03:17:11;1.57;;;1.00;;
44272;SDS011;29964;17.182;-96.766;2022-10-16T03:19:38;1.33;;;0.93;;
44272;SDS011;29964;17.182;-96.766;2022-10-16T03:22:05;1.17;;;0.90;;
44272;SDS011;29964;17.182;-96.766;2022-10-16T03:24:31;8.80;;;2.30;;
44272;SDS011;29964;17.182;-96.766;2022-10-16T03:26:58;3.63;;;1.50;;
44272;SDS011;29964;17.182;-96.766;2022-10-16T03:29:25;3.73;;;1.53;;
44272;SDS011;29964;17.182;-96.766;2022-10-16T03:31:58;3.47;;;1.07;;
44272;SDS011;29964;17.182;-96.766;2022-10-16T03:34:25;3.27;;;1.47;;
44272;SDS011;29964;17.182;-96.766;2022-10-16T03:36:52;2.10;;;1.13;;
44272;SDS011;29964;17.182;-96.766;2022-10-16T03:39:19;5.40;;;1.17;;
44272;SDS011;29964;17.182;-96.766;2022-10-16T03:41:45;2.60;;;1.40;;
44272;SDS011;29964;17.182;-96.766;2022-10-16T03:44:12;1.10;;;0.70;;
44272;SDS011;29964;17.182;-96.766;2022-10-16T03:46:39;1.27;;;1.03;;
44272;SDS011;29964;17.182;-96.766;2022-10-16T03:49:06;1.37;;;1.00;;
44272;SDS011;29964;17.182;-96.766;2022-10-16T03:51:32;1.80;;;1.10;;
44272;SDS011;29964;17.182;-96.766;2022-10-16T03:53:59;1.53;;;0.90;;
44272;SDS011;29964;17.182;-96.766;2022-10-16T03:56:26;0.60;;;0.53;;
44272;SDS011;29964;17.182;-96.766;2022-10-16T03:58:52;5.77;;;1.67;;
44272;SDS011;29964;17.182;-96.766;2022-10-16T04:01:19;1.67;;;1.17;;
44272;SDS011;29964;17.182;-96.766;2022-10-16T04:03:46;5.20;;;1.47;;
44272;SDS011;29964;17.182;-96.766;2022-10-16T04:06:12;2.13;;;1.20;;
44272;SDS011;29964;17.182;-96.766;2022-10-16T04:08:41;1.20;;;1.00;;
44272;SDS011;29964;17.182;-96.766;2022-10-16T04:11:08;1.77;;;1.23;;
44272;SDS011;29964;17.182;-96.766;2022-10-16T04:13:35;1.57;;;0.90;;
44272;SDS011;29964;17.182;-96.766;2022-10-16T04:16:01;1.50;;;1.20;;
44272;SDS011;29964;17.182;-96.766;2022-10-16T04:18:28;13.50;;;1.67;;
44272;SDS011;29964;17.182;-96.766;2022-10-16T04:20:54;2.33;;;1.73;;
44272;SDS011;29964;17.182;-96.766;2022-10-16T04:23:21;3.47;;;2.13;;
44272;SDS011;29964;17.182;-96.766;2022-10-16T04:25:48;1.83;;;1.30;;
44272;SDS011;29964;17.182;-96.766;2022-10-16T04:28:15;2.23;;;1.23;;
44272;SDS011;29964;17.182;-96.766;2022-10-16T04:30:42;2.00;;;1.17;;
44272;SDS011;29964;17.182;-96.766;2022-10-16T04:33:09;1.73;;;1.13;;
44272;SDS011;29964;17.182;-96.766;2022-10-16T04:35:35;2.37;;;1.40;;
44272;SDS011;29964;17.182;-96.766;2022-10-16T04:38:02;2.93;;;1.93;;
44272;SDS011;29964;17.182;-96.766;2022-10-16T04:40:29;2.70;;;1.77;;
44272;SDS011;29964;17.182;-96.766;2022-10-16T04:43:01;1.50;;;1.20;;
44272;SDS011;29964;17.182;-96.766;2022-10-16T04:45:28;2.00;;;1.17;;
44272;SDS011;29964;17.182;-96.766;2022-10-16T04:47:58;2.33;;;1.30;;
44272;SDS011;29964;17.182;-96.766;2022-10-16T04:50:25;1.43;;;0.87;;
44272;SDS011;29964;17.182;-96.766;2022-10-16T04:52:51;1.57;;;1.07;;
44272;SDS011;29964;17.182;-96.766;2022-10-16T04:55:18;3.87;;;1.47;;
44272;SDS011;29964;17.182;-96.766;2022-10-16T04:57:44;2.80;;;1.37;;
44272;SDS011;29964;17.182;-96.766;2022-10-16T05:00:11;1.53;;;1.10;;
44272;SDS011;29964;17.182;-96.766;2022-10-16T05:02:38;1.90;;;0.83;;
44272;SDS011;29964;17.182;-96.766;2022-10-16T05:05:05;1.13;;;0.87;;
44272;SDS011;29964;17.182;-96.766;2022-10-16T05:07:32;2.57;;;1.63;;
44272;SDS011;29964;17.182;-96.766;2022-10-16T05:09:59;0.90;;;0.70;;
44272;SDS011;29964;17.182;-96.766;2022-10-16T05:12:25;1.17;;;0.93;;
44272;SDS011;29964;17.182;-96.766;2022-10-16T05:14:52;0.77;;;0.63;;
44272;SDS011;29964;17.182;-96.766;2022-10-16T05:17:24;2.40;;;1.20;;
44272;SDS011;29964;17.182;-96.766;2022-10-16T05:19:51;1.50;;;0.70;;
44272;SDS011;29964;17.182;-96.766;2022-10-16T05:22:17;0.97;;;0.67;;
44272;SDS011;29964;17.182;-96.766;2022-10-16T05:24:44;0.90;;;0.70;;
44272;SDS011;29964;17.182;-96.766;2022-10-16T05:27:11;2.00;;;1.30;;
44272;SDS011;29964;17.182;-96.766;2022-10-16T05:29:44;1.13;;;0.90;;
44272;SDS011;29964;17.182;-96.766;2022-10-16T05:32:12;7.73;;;0.70;;
44272;SDS011;29964;17.182;-96.766;2022-10-16T05:34:38;1.53;;;0.93;;
44272;SDS011;29964;17.182;-96.766;2022-10-16T05:37:05;0.87;;;0.80;;
44272;SDS011;29964;17.182;-96.766;2022-10-16T05:39:32;1.00;;;0.83;;
44272;SDS011;29964;17.182;-96.766;2022-10-16T05:41:59;1.00;;;0.70;;
44272;SDS011;29964;17.182;-96.766;2022-10-16T05:44:25;2.30;;;1.47;;
44272;SDS011;29964;17.182;-96.766;2022-10-16T05:46:52;0.90;;;0.70;;
44272;SDS011;29964;17.182;-96.766;2022-10-16T05:49:19;1.67;;;1.00;;
44272;SDS011;29964;17.182;-96.766;2022-10-16T05:51:45;1.67;;;0.93;;
44272;SDS011;29964;17.182;-96.766;2022-10-16T05:54:12;0.97;;;0.70;;
44272;SDS011;29964;17.182;-96.766;2022-10-16T05:56:39;2.20;;;1.23;;
44272;SDS011;29964;17.182;-96.766;2022-10-16T05:59:05;1.30;;;0.97;;
44272;SDS011;29964;17.182;-96.766;2022-10-16T06:01:32;0.50;;;0.40;;
44272;SDS011;29964;17.182;-96.766;2022-10-16T06:03:59;1.57;;;1.10;;
44272;SDS011;29964;17.182;-96.766;2022-10-16T06:06:26;1.37;;;0.73;;
44272;SDS011;29964;17.182;-96.766;2022-10-16T06:08:54;1.53;;;0.97;;
44272;SDS011;29964;17.182;-96.766;2022-10-16T06:11:22;1.43;;;1.00;;
44272;SDS011;29964;17.182;-96.766;2022-10-16T06:13:49;1.80;;;1.20;;
44272;SDS011;29964;17.182;-96.766;2022-10-16T06:16:16;1.97;;;1.20;;
44272;SDS011;29964;17.182;-96.766;2022-10-16T06:18:43;1.10;;;0.60;;
44272;SDS011;29964;17.182;-96.766;2022-10-16T06:21:11;1.17;;;0.80;;
44272;SDS011;29964;17.182;-96.766;2022-10-16T06:23:38;1.27;;;0.83;;
44272;SDS011;29964;17.182;-96.766;2022-10-16T06:26:09;0.67;;;0.60;;
44272;SDS011;29964;17.182;-96.766;2022-10-16T06:28:35;1.07;;;0.80;;
44272;SDS011;29964;17.182;-96.766;2022-10-16T06:31:03;2.03;;;0.97;;
44272;SDS011;29964;17.182;-96.766;2022-10-16T06:33:30;0.40;;;0.40;;
44272;SDS011;29964;17.182;-96.766;2022-10-16T06:36:00;0.30;;;0.30;;
44272;SDS011;29964;17.182;-96.766;2022-10-16T06:38:28;1.37;;;0.87;;
44272;SDS011;29964;17.182;-96.766;2022-10-16T06:40:55;0.53;;;0.53;;
44272;SDS011;29964;17.182;-96.766;2022-10-16T06:43:21;0.30;;;0.30;;
44272;SDS011;29964;17.182;-96.766;2022-10-16T06:45:55;0.83;;;0.73;;
44272;SDS011;29964;17.182;-96.766;2022-10-16T06:48:22;1.23;;;0.73;;
44272;SDS011;29964;17.182;-96.766;2022-10-16T06:51:04;1.63;;;0.90;;
44272;SDS011;29964;17.182;-96.766;2022-10-16T06:53:32;0.40;;;0.40;;
44272;SDS011;29964;17.182;-96.766;2022-10-16T06:56:09;1.30;;;0.93;;
44272;SDS011;29964;17.182;-96.766;2022-10-16T06:58:35;0.77;;;0.57;;
44272;SDS011;29964;17.182;-96.766;2022-10-16T07:01:03;1.03;;;0.77;;
44272;SDS011;29964;17.182;-96.766;2022-10-16T07:03:30;1.03;;;0.73;;
44272;SDS011;29964;17.182;-96.766;2022-10-16T07:05:56;2.20;;;1.07;;
44272;SDS011;29964;17.182;-96.766;2022-10-16T07:08:23;0.50;;;0.50;;
44272;SDS011;29964;17.182;-96.766;2022-10-16T07:10:57;4.23;;;0.90;;
44272;SDS011;29964;17.182;-96.766;2022-10-16T07:13:24;7.70;;;1.45;;
44272;SDS011;29964;17.182;-96.766;2022-10-16T07:15:51;0.70;;;0.60;;
44272;SDS011;29964;17.182;-96.766;2022-10-16T07:18:17;0.40;;;0.40;;
44272;SDS011;29964;17.182;-96.766;2022-10-16T07:20:44;3.17;;;0.97;;
44272;SDS011;29964;17.182;-96.766;2022-10-16T07:23:11;1.53;;;0.90;;
44272;SDS011;29964;17.182;-96.766;2022-10-16T07:25:37;1.10;;;0.77;;
44272;SDS011;29964;17.182;-96.766;2022-10-16T07:28:04;0.80;;;0.53;;
44272;SDS011;29964;17.182;-96.766;2022-10-16T07:30:31;1.70;;;0.77;;
44272;SDS011;29964;17.182;-96.766;2022-10-16T07:33:01;0.93;;;0.57;;
44272;SDS011;29964;17.182;-96.766;2022-10-16T07:35:28;1.17;;;0.73;;
44272;SDS011;29964;17.182;-96.766;2022-10-16T07:37:54;0.43;;;0.43;;
44272;SDS011;29964;17.182;-96.766;2022-10-16T07:40:21;5.80;;;0.97;;
44272;SDS011;29964;17.182;-96.766;2022-10-16T07:42:48;1.40;;;0.90;;
44272;SDS011;29964;17.182;-96.766;2022-10-16T07:45:14;2.00;;;0.77;;
44272;SDS011;29964;17.182;-96.766;2022-10-16T07:47:41;1.57;;;0.97;;
44272;SDS011;29964;17.182;-96.766;2022-10-16T07:50:08;1.73;;;1.07;;
44272;SDS011;29964;17.182;-96.766;2022-10-16T07:52:34;2.13;;;1.00;;
44272;SDS011;29964;17.182;-96.766;2022-10-16T07:55:01;0.83;;;0.67;;
44272;SDS011;29964;17.182;-96.766;2022-10-16T07:57:28;1.17;;;0.97;;
44272;SDS011;29964;17.182;-96.766;2022-10-16T07:59:55;0.97;;;0.73;;
44272;SDS011;29964;17.182;-96.766;2022-10-16T08:02:21;0.57;;;0.57;;
44272;SDS011;29964;17.182;-96.766;2022-10-16T08:04:48;1.17;;;0.80;;
44272;SDS011;29964;17.182;-96.766;2022-10-16T08:07:15;1.20;;;0.67;;
44272;SDS011;29964;17.182;-96.766;2022-10-16T08:09:42;2.03;;;0.97;;
44272;SDS011;29964;17.182;-96.766;2022-10-16T08:12:08;1.53;;;0.63;;
44272;SDS011;29964;17.182;-96.766;2022-10-16T08:14:36;2.97;;;1.27;;
44272;SDS011;29964;17.182;-96.766;2022-10-16T08:17:02;0.53;;;0.53;;
44272;SDS011;29964;17.182;-96.766;2022-10-16T08:19:29;1.43;;;0.80;;
44272;SDS011;29964;17.182;-96.766;2022-10-16T08:21:59;1.27;;;0.70;;
44272;SDS011;29964;17.182;-96.766;2022-10-16T08:24:26;1.47;;;0.80;;
44272;SDS011;29964;17.182;-96.766;2022-10-16T08:26:56;1.70;;;1.17;;
44272;SDS011;29964;17.182;-96.766;2022-10-16T08:29:22;1.30;;;1.03;;
44272;SDS011;29964;17.182;-96.766;2022-10-16T08:31:49;0.83;;;0.60;;
44272;SDS011;29964;17.182;-96.766;2022-10-16T08:34:16;0.93;;;0.80;;
44272;SDS011;29964;17.182;-96.766;2022-10-16T08:36:42;0.70;;;0.67;;
44272;SDS011;29964;17.182;-96.766;2022-10-16T08:39:09;1.77;;;1.23;;
44272;SDS011;29964;17.182;-96.766;2022-10-16T08:49:58;3.17;;;1.27;;
44272;SDS011;29964;17.182;-96.766;2022-10-16T08:52:28;0.60;;;0.53;;
44272;SDS011;29964;17.182;-96.766;2022-10-16T08:54:55;0.63;;;0.53;;
44272;SDS011;29964;17.182;-96.766;2022-10-16T08:57:23;1.27;;;0.77;;
44272;SDS011;29964;17.182;-96.766;2022-10-16T08:59:52;0.60;;;0.50;;
44272;SDS011;29964;17.182;-96.766;2022-10-16T09:02:38;0.70;;;0.53;;
44272;SDS011;29964;17.182;-96.766;2022-10-16T09:05:21;14.63;;;1.00;;
44272;SDS011;29964;17.182;-96.766;2022-10-16T09:13:29;1.63;;;1.23;;
44272;SDS011;29964;17.182;-96.766;2022-10-16T09:18:53;1.60;;;0.87;;
44272;SDS011;29964;17.182;-96.766;2022-10-16T09:23:47;0.77;;;0.67;;
44272;SDS011;29964;17.182;-96.766;2022-10-16T09:26:14;1.67;;;0.70;;
44272;SDS011;29964;17.182;-96.766;2022-10-16T09:28:43;3.03;;;1.53;;
44272;SDS011;29964;17.182;-96.766;2022-10-16T09:31:20;1.13;;;0.90;;
44272;SDS011;29964;17.182;-96.766;2022-10-16T09:33:57;0.93;;;0.50;;
44272;SDS011;29964;17.182;-96.766;2022-10-16T09:36:25;0.93;;;0.77;;
44272;SDS011;29964;17.182;-96.766;2022-10-16T09:39:04;0.37;;;0.37;;
44272;SDS011;29964;17.182;-96.766;2022-10-16T09:41:33;1.20;;;0.80;;
44272;SDS011;29964;17.182;-96.766;2022-10-16T09:44:00;1.50;;;1.00;;
44272;SDS011;29964;17.182;-96.766;2022-10-16T09:46:32;0.70;;;0.70;;
44272;SDS011;29964;17.182;-96.766;2022-10-16T09:48:59;0.87;;;0.70;;
44272;SDS011;29964;17.182;-96.766;2022-10-16T09:51:31;0.57;;;0.50;;
44272;SDS011;29964;17.182;-96.766;2022-10-16T09:53:59;0.87;;;0.70;;
44272;SDS011;29964;17.182;-96.766;2022-10-16T09:56:35;0.77;;;0.70;;
44272;SDS011;29964;17.182;-96.766;2022-10-16T10:01:46;0.90;;;0.50;;
44272;SDS011;29964;17.182;-96.766;2022-10-16T10:04:13;0.93;;;0.70;;
44272;SDS011;29964;17.182;-96.766;2022-10-16T10:06:44;1.23;;;0.87;;
44272;SDS011;29964;17.182;-96.766;2022-10-16T10:09:21;0.87;;;0.70;;
44272;SDS011;29964;17.182;-96.766;2022-10-16T10:11:53;1.87;;;0.97;;
44272;SDS011;29964;17.182;-96.766;2022-10-16T10:16:50;1.20;;;0.80;;
44272;SDS011;29964;17.182;-96.766;2022-10-16T10:19:20;1.03;;;0.70;;
44272;SDS011;29964;17.182;-96.766;2022-10-16T10:21:48;0.87;;;0.70;;
44272;SDS011;29964;17.182;-96.766;2022-10-16T10:24:16;1.00;;;0.63;;
44272;SDS011;29964;17.182;-96.766;2022-10-16T10:32:20;0.37;;;0.37;;
44272;SDS011;29964;17.182;-96.766;2022-10-16T10:37:43;1.10;;;0.63;;
44272;SDS011;29964;17.182;-96.766;2022-10-16T10:40:15;0.77;;;0.50;;
44272;SDS011;29964;17.182;-96.766;2022-10-16T10:48:21;1.80;;;1.30;;
44272;SDS011;29964;17.182;-96.766;2022-10-16T10:50:57;1.57;;;1.10;;
44272;SDS011;29964;17.182;-96.766;2022-10-16T11:06:44;1.23;;;0.87;;
44272;SDS011;29964;17.182;-96.766;2022-10-16T11:09:56;1.93;;;1.27;;
44272;SDS011;29964;17.182;-96.766;2022-10-16T11:12:11;1.90;;;1.17;;
44272;SDS011;29964;17.182;-96.766;2022-10-16T11:14:45;1.37;;;1.10;;
44272;SDS011;29964;17.182;-96.766;2022-10-16T11:17:26;2.60;;;1.00;;
44272;SDS011;29964;17.182;-96.766;2022-10-16T11:19:57;3.47;;;1.13;;
44272;SDS011;29964;17.182;-96.766;2022-10-16T11:27:34;1.13;;;0.80;;
44272;SDS011;29964;17.182;-96.766;2022-10-16T11:30:03;0.95;;;0.88;;
44272;SDS011;29964;17.182;-96.766;2022-10-16T11:32:33;2.17;;;1.13;;
44272;SDS011;29964;17.182;-96.766;2022-10-16T11:35:05;1.83;;;1.63;;
44272;SDS011;29964;17.182;-96.766;2022-10-16T11:37:38;2.13;;;1.70;;
44272;SDS011;29964;17.182;-96.766;2022-10-16T11:40:29;2.30;;;1.67;;
44272;SDS011;29964;17.182;-96.766;2022-10-16T11:45:46;3.20;;;1.73;;
44272;SDS011;29964;17.182;-96.766;2022-10-16T11:54:02;2.10;;;1.67;;
44272;SDS011;29964;17.182;-96.766;2022-10-16T11:56:31;1.83;;;0.97;;
44272;SDS011;29964;17.182;-96.766;2022-10-16T11:58:59;1.00;;;0.90;;
44272;SDS011;29964;17.182;-96.766;2022-10-16T12:06:52;4.80;;;1.60;;
44272;SDS011;29964;17.182;-96.766;2022-10-16T12:11:48;1.93;;;1.20;;
44272;SDS011;29964;17.182;-96.766;2022-10-16T12:16:57;1.17;;;0.83;;
44272;SDS011;29964;17.182;-96.766;2022-10-16T12:19:28;1.27;;;0.90;;
44272;SDS011;29964;17.182;-96.766;2022-10-16T12:21:56;1.70;;;1.17;;
44272;SDS011;29964;17.182;-96.766;2022-10-16T12:24:41;2.03;;;1.27;;
44272;SDS011;29964;17.182;-96.766;2022-10-16T12:27:28;3.83;;;1.83;;
44272;SDS011;29964;17.182;-96.766;2022-10-16T12:29:59;1.37;;;0.80;;
44272;SDS011;29964;17.182;-96.766;2022-10-16T12:34:53;1.67;;;1.30;;
44272;SDS011;29964;17.182;-96.766;2022-10-16T12:39:47;2.63;;;1.40;;
44272;SDS011;29964;17.182;-96.766;2022-10-16T12:42:21;1.03;;;0.73;;
44272;SDS011;29964;17.182;-96.766;2022-10-16T12:44:48;6.25;;;1.35;;
44272;SDS011;29964;17.182;-96.766;2022-10-16T12:49:57;0.77;;;0.63;;
44272;SDS011;29964;17.182;-96.766;2022-10-16T12:52:28;0.80;;;0.77;;
44272;SDS011;29964;17.182;-96.766;2022-10-16T12:55:01;1.97;;;1.17;;
44272;SDS011;29964;17.182;-96.766;2022-10-16T13:15:19;13.67;;;2.47;;
44272;SDS011;29964;17.182;-96.766;2022-10-16T13:17:58;0.80;;;0.80;;
44272;SDS011;29964;17.182;-96.766;2022-10-16T13:23:15;2.47;;;1.30;;
44272;SDS011;29964;17.182;-96.766;2022-10-16T13:25:55;2.07;;;1.40;;
44272;SDS011;29964;17.182;-96.766;2022-10-16T13:28:29;3.97;;;1.70;;
44272;SDS011;29964;17.182;-96.766;2022-10-16T13:30:58;2.17;;;1.37;;
44272;SDS011;29964;17.182;-96.766;2022-10-16T13:33:37;0.57;;;0.57;;
44272;SDS011;29964;17.182;-96.766;2022-10-16T13:36:05;2.03;;;1.23;;
44272;SDS011;29964;17.182;-96.766;2022-10-16T13:38:32;0.87;;;0.67;;
44272;SDS011;29964;17.182;-96.766;2022-10-16T13:41:00;1.00;;;0.90;;
44272;SDS011;29964;17.182;-96.766;2022-10-16T13:48:21;1.83;;;1.20;;
44272;SDS011;29964;17.182;-96.766;2022-10-16T13:50:57;0.67;;;0.67;;
44272;SDS011;29964;17.182;-96.766;2022-10-16T13:53:24;2.33;;;1.13;;
44272;SDS011;29964;17.182;-96.766;2022-10-16T13:55:51;1.20;;;0.90;;
44272;SDS011;29964;17.182;-96.766;2022-10-16T13:58:17;1.27;;;0.80;;
44272;SDS011;29964;17.182;-96.766;2022-10-16T14:00:58;5.47;;;1.07;;
44272;SDS011;29964;17.182;-96.766;2022-10-16T14:03:25;2.20;;;1.40;;
44272;SDS011;29964;17.182;-96.766;2022-10-16T14:05:53;0.57;;;0.43;;
44272;SDS011;29964;17.182;-96.766;2022-10-16T14:08:21;0.93;;;0.77;;
44272;SDS011;29964;17.182;-96.766;2022-10-16T14:10:53;0.60;;;0.50;;
44272;SDS011;29964;17.182;-96.766;2022-10-16T14:13:23;0.90;;;0.70;;
44272;SDS011;29964;17.182;-96.766;2022-10-16T14:15:52;0.73;;;0.70;;
44272;SDS011;29964;17.182;-96.766;2022-10-16T14:18:21;1.20;;;0.93;;
44272;SDS011;29964;17.182;-96.766;2022-10-16T14:20:49;1.27;;;0.90;;
44272;SDS011;29964;17.182;-96.766;2022-10-16T14:23:23;1.43;;;0.97;;
44272;SDS011;29964;17.182;-96.766;2022-10-16T14:26:04;0.67;;;0.60;;
44272;SDS011;29964;17.182;-96.766;2022-10-16T14:28:31;1.40;;;1.10;;
44272;SDS011;29964;17.182;-96.766;2022-10-16T14:30:59;0.40;;;0.40;;
44272;SDS011;29964;17.182;-96.766;2022-10-16T14:36:03;2.47;;;1.77;;
44272;SDS011;29964;17.182;-96.766;2022-10-16T14:38:30;2.22;;;1.52;;
44272;SDS011;29964;17.182;-96.766;2022-10-16T14:40:58;1.00;;;0.87;;
44272;SDS011;29964;17.182;-96.766;2022-10-16T14:43:35;1.37;;;1.00;;
44272;SDS011;29964;17.182;-96.766;2022-10-16T14:46:07;1.93;;;1.20;;
44272;SDS011;29964;17.182;-96.766;2022-10-16T14:48:35;1.00;;;0.90;;
44272;SDS011;29964;17.182;-96.766;2022-10-16T14:51:02;2.23;;;1.47;;
44272;SDS011;29964;17.182;-96.766;2022-10-16T14:53:29;0.73;;;0.60;;
44272;SDS011;29964;17.182;-96.766;2022-10-16T14:55:55;3.13;;;1.83;;
44272;SDS011;29964;17.182;-96.766;2022-10-16T14:58:22;2.40;;;0.83;;
44272;SDS011;29964;17.182;-96.766;2022-10-16T15:00:50;1.30;;;1.07;;
44272;SDS011;29964;17.182;-96.766;2022-10-16T15:03:17;1.70;;;1.17;;
44272;SDS011;29964;17.182;-96.766;2022-10-16T15:05:43;1.27;;;1.03;;
44272;SDS011;29964;17.182;-96.766;2022-10-16T15:08:10;1.63;;;1.30;;
44272;SDS011;29964;17.182;-96.766;2022-10-16T15:10:41;2.73;;;1.53;;
44272;SDS011;29964;17.182;-96.766;2022-10-16T15:13:11;3.90;;;2.17;;
44272;SDS011;29964;17.182;-96.766;2022-10-16T15:15:40;13.47;;;1.53;;
44272;SDS011;29964;17.182;-96.766;2022-10-16T15:18:08;2.73;;;2.00;;
44272;SDS011;29964;17.182;-96.766;2022-10-16T15:20:35;3.33;;;1.67;;
44272;SDS011;29964;17.182;-96.766;2022-10-16T15:23:03;4.27;;;2.53;;
44272;SDS011;29964;17.182;-96.766;2022-10-16T15:25:33;3.60;;;2.60;;
44272;SDS011;29964;17.182;-96.766;2022-10-16T15:28:01;3.77;;;2.33;;
44272;SDS011;29964;17.182;-96.766;2022-10-16T15:30:28;5.60;;;3.60;;
44272;SDS011;29964;17.182;-96.766;2022-10-16T15:32:55;3.20;;;2.77;;
44272;SDS011;29964;17.182;-96.766;2022-10-16T15:35:22;3.53;;;2.10;;
44272;SDS011;29964;17.182;-96.766;2022-10-16T15:37:48;7.00;;;2.83;;
44272;SDS011;29964;17.182;-96.766;2022-10-16T15:40:16;4.77;;;2.93;;
44272;SDS011;29964;17.182;-96.766;2022-10-16T15:42:42;7.77;;;4.27;;
44272;SDS011;29964;17.182;-96.766;2022-10-16T15:45:09;6.97;;;3.47;;
44272;SDS011;29964;17.182;-96.766;2022-10-16T15:47:36;3.53;;;2.57;;
44272;SDS011;29964;17.182;-96.766;2022-10-16T15:50:03;8.27;;;2.77;;
44272;SDS011;29964;17.182;-96.766;2022-10-16T15:52:30;3.23;;;2.10;;
44272;SDS011;29964;17.182;-96.766;2022-10-16T15:54:57;7.20;;;2.80;;
44272;SDS011;29964;17.182;-96.766;2022-10-16T15:57:24;3.60;;;2.23;;
44272;SDS011;29964;17.182;-96.766;2022-10-16T15:59:51;5.17;;;2.07;;
44272;SDS011;29964;17.182;-96.766;2022-10-16T16:02:17;5.60;;;3.03;;
44272;SDS011;29964;17.182;-96.766;2022-10-16T16:04:44;3.70;;;2.30;;
44272;SDS011;29964;17.182;-96.766;2022-10-16T16:07:11;3.50;;;2.23;;
44272;SDS011;29964;17.182;-96.766;2022-10-16T16:09:37;2.97;;;1.43;;
44272;SDS011;29964;17.182;-96.766;2022-10-16T16:12:04;9.17;;;2.60;;
44272;SDS011;29964;17.182;-96.766;2022-10-16T16:14:31;2.13;;;1.43;;
44272;SDS011;29964;17.182;-96.766;2022-10-16T16:16:57;4.93;;;2.03;;
44272;SDS011;29964;17.182;-96.766;2022-10-16T16:19:24;3.53;;;1.83;;
44272;SDS011;29964;17.182;-96.766;2022-10-16T16:21:51;4.43;;;1.73;;
44272;SDS011;29964;17.182;-96.766;2022-10-16T16:24:17;2.97;;;1.53;;
44272;SDS011;29964;17.182;-96.766;2022-10-16T16:26:44;1.67;;;1.13;;
44272;SDS011;29964;17.182;-96.766;2022-10-16T16:29:12;2.30;;;1.67;;
44272;SDS011;29964;17.182;-96.766;2022-10-16T16:31:39;2.40;;;1.53;;
44272;SDS011;29964;17.182;-96.766;2022-10-16T16:34:06;2.40;;;1.17;;
44272;SDS011;29964;17.182;-96.766;2022-10-16T16:36:33;1.47;;;1.17;;
44272;SDS011;29964;17.182;-96.766;2022-10-16T16:39:00;2.80;;;1.83;;
44272;SDS011;29964;17.182;-96.766;2022-10-16T16:41:27;1.97;;;1.17;;